createdAt,value
2022-08-17T00:02:25.544Z,63.79
2022-08-17T00:04:53.674Z,63.53
2022-08-17T00:07:20.513Z,63.22
2022-08-17T00:09:47.447Z,63.03
2022-08-17T00:12:40.469Z,63.47
2022-08-17T00:15:01.615Z,63.48
2022-08-17T00:17:28.618Z,63.79
2022-08-17T00:19:55.446Z,63.84
2022-08-17T00:22:31.423Z,63.85
2022-08-17T00:25:03.138Z,64.01
2022-08-17T00:27:30.174Z,63.82
2022-08-17T00:29:56.963Z,63.96
2022-08-17T00:33:12.685Z,63.62
2022-08-17T00:35:11.784Z,63.56
2022-08-17T00:37:39.006Z,63.32
2022-08-17T00:40:06.400Z,63.32
2022-08-17T00:42:33.530Z,63.41
2022-08-17T00:45:00.399Z,63.22
2022-08-17T00:47:27.336Z,63.45
2022-08-17T00:49:54.274Z,63.58
2022-08-17T00:52:23.236Z,63.74
2022-08-17T00:54:52.428Z,63.75
2022-08-17T00:57:21.484Z,63.57
2022-08-17T01:00:02.130Z,63.51
2022-08-17T01:02:34.225Z,63.39
2022-08-17T01:05:08.266Z,63.22
2022-08-17T01:07:35.131Z,63.16
2022-08-17T01:10:07.502Z,63.15
2022-08-17T01:12:54.561Z,62.88
2022-08-17T01:15:21.439Z,62.83
2022-08-17T01:17:48.466Z,62.70
2022-08-17T01:20:17.079Z,62.61
2022-08-17T01:22:43.935Z,62.58
2022-08-17T01:25:11.680Z,62.85
2022-08-17T01:27:39.006Z,63.02
2022-08-17T01:30:58.042Z,62.95
2022-08-17T01:32:54.642Z,62.87
2022-08-17T01:35:21.610Z,62.74
2022-08-17T01:37:48.418Z,62.42
2022-08-17T01:40:21.721Z,62.25
2022-08-17T01:43:08.798Z,62.37
2022-08-17T01:45:39.339Z,62.65
2022-08-17T01:48:06.144Z,62.52
2022-08-17T01:50:35.407Z,62.46
2022-08-17T01:53:04.302Z,62.55
2022-08-17T01:55:33.957Z,62.54
2022-08-17T01:58:00.892Z,62.71
2022-08-17T02:00:46.769Z,62.56
2022-08-17T02:03:17.367Z,62.60
2022-08-17T02:05:44.695Z,62.44
2022-08-17T02:08:19.903Z,62.51
2022-08-17T02:10:47.958Z,62.33
2022-08-17T02:13:15.271Z,63.03
2022-08-17T02:15:42.393Z,63.45
2022-08-17T02:18:10.453Z,64.06
2022-08-17T02:20:41.386Z,64.21
2022-08-17T02:23:09.647Z,64.54
2022-08-17T02:25:36.840Z,64.56
2022-08-17T02:28:04.843Z,64.45
2022-08-17T02:31:02.202Z,64.70
2022-08-17T02:33:18.718Z,64.49
2022-08-17T02:35:47.251Z,64.26
2022-08-17T02:38:14.126Z,64.46
2022-08-17T02:40:41.172Z,64.78
2022-08-17T02:43:08.701Z,65.41
2022-08-17T02:45:35.814Z,66.41
2022-08-17T02:48:02.986Z,66.91
2022-08-17T02:50:29.864Z,67.19
2022-08-17T02:53:02.393Z,67.45
2022-08-17T02:55:35.288Z,67.50
2022-08-17T02:58:03.835Z,67.68
2022-08-17T03:00:34.264Z,67.99
2022-08-17T03:03:01.426Z,67.88
2022-08-17T03:05:29.522Z,67.75
2022-08-17T03:07:56.880Z,67.77
2022-08-17T03:10:24.823Z,67.55
2022-08-17T03:12:52.823Z,67.93
2022-08-17T03:15:24.417Z,67.37
2022-08-17T03:17:52.160Z,67.41
2022-08-17T03:20:19.527Z,67.36
2022-08-17T03:22:53.454Z,67.30
2022-08-17T03:25:28.296Z,67.42
2022-08-17T03:27:55.970Z,67.20
2022-08-17T03:30:23.303Z,67.22
2022-08-17T03:32:51.186Z,67.49
2022-08-17T03:35:19.994Z,67.39
2022-08-17T03:37:47.262Z,67.37
2022-08-17T03:40:55.906Z,66.93
2022-08-17T03:43:10.996Z,66.86
2022-08-17T03:45:56.882Z,66.62
2022-08-17T03:48:42.563Z,67.12
2022-08-17T03:51:33.469Z,67.54
2022-08-17T03:54:18.801Z,67.67
2022-08-17T03:56:48.946Z,67.85
2022-08-17T03:59:21.247Z,67.73
2022-08-17T04:01:50.991Z,67.53
2022-08-17T04:04:20.433Z,67.60
2022-08-17T04:06:54.881Z,68.03
2022-08-17T04:09:21.836Z,68.64
2022-08-17T04:11:48.744Z,68.91
2022-08-17T04:14:15.636Z,69.18
2022-08-17T04:16:42.442Z,69.29
2022-08-17T04:19:09.342Z,68.99
2022-08-17T04:21:36.112Z,68.91
2022-08-17T04:24:03.479Z,69.36
2022-08-17T04:26:53.947Z,69.10
2022-08-17T04:29:17.635Z,68.75
2022-08-17T04:31:44.472Z,68.71
2022-08-17T04:34:12.186Z,68.69
2022-08-17T04:36:39.113Z,68.67
2022-08-17T04:39:05.960Z,68.15
2022-08-17T04:41:51.350Z,68.37
2022-08-17T04:44:37.185Z,68.81
2022-08-17T04:47:05.190Z,69.47
2022-08-17T04:49:32.672Z,69.51
2022-08-17T04:52:04.369Z,69.78
2022-08-17T04:54:31.745Z,70.05
2022-08-17T04:56:58.627Z,70.14
2022-08-17T04:59:25.627Z,70.14
2022-08-17T05:01:52.481Z,69.82
2022-08-17T05:04:33.879Z,69.58
2022-08-17T05:07:02.430Z,69.50
2022-08-17T05:09:29.333Z,69.49
2022-08-17T05:11:56.826Z,69.42
2022-08-17T05:14:32.930Z,69.16
2022-08-17T05:17:01.405Z,69.30
2022-08-17T05:19:28.928Z,69.50
2022-08-17T05:21:56.107Z,69.39
2022-08-17T05:24:38.713Z,69.33
2022-08-17T05:27:10.572Z,69.13
2022-08-17T05:29:45.862Z,68.83
2022-08-17T05:32:38.145Z,68.48
2022-08-17T05:35:01.196Z,68.00
2022-08-17T05:37:28.110Z,67.30
2022-08-17T05:39:55.191Z,66.91
2022-08-17T05:42:22.448Z,66.39
2022-08-17T05:44:49.313Z,65.81
2022-08-17T05:47:16.637Z,65.98
2022-08-17T05:49:43.492Z,65.65
2022-08-17T05:52:24.089Z,65.78
2022-08-17T05:55:06.367Z,65.74
2022-08-17T05:57:43.527Z,65.71
2022-08-17T06:00:42.012Z,65.42
2022-08-17T06:03:27.794Z,65.02
2022-08-17T06:06:02.018Z,64.40
2022-08-17T06:08:48.363Z,63.93
2022-08-17T06:11:44.581Z,62.57
2022-08-17T06:14:34.525Z,62.30
2022-08-17T06:17:04.646Z,62.19
2022-08-17T06:20:10.362Z,61.53
2022-08-17T06:22:41.260Z,60.69
2022-08-17T06:25:34.395Z,60.82
2022-08-17T06:28:19.302Z,60.90
2022-08-17T06:31:00.154Z,60.59
2022-08-17T06:33:34.565Z,60.39
2022-08-17T06:36:09.481Z,60.23
2022-08-17T06:38:46.183Z,59.87
2022-08-17T06:41:19.533Z,59.84
2022-08-17T06:43:54.946Z,59.43
2022-08-17T06:46:47.245Z,59.29
2022-08-17T06:49:43.325Z,58.75
2022-08-17T06:52:45.415Z,58.45
2022-08-17T06:55:26.725Z,58.13
2022-08-17T06:57:56.312Z,58.00
2022-08-17T07:00:25.119Z,57.92
2022-08-17T07:02:58.099Z,56.61
2022-08-17T07:05:31.173Z,56.43
2022-08-17T07:08:20.089Z,56.02
2022-08-17T07:10:54.341Z,55.81
2022-08-17T07:13:30.372Z,55.33
2022-08-17T07:16:08.274Z,55.06
2022-08-17T07:18:35.236Z,54.52
2022-08-17T07:21:11.096Z,53.56
2022-08-17T07:23:49.059Z,54.29
2022-08-17T07:26:16.038Z,53.93
2022-08-17T07:28:43.539Z,53.41
2022-08-17T07:31:13.577Z,53.41
2022-08-17T07:33:41.403Z,53.29
2022-08-17T07:36:29.183Z,53.09
2022-08-17T07:38:58.256Z,53.07
2022-08-17T07:41:25.310Z,52.46
2022-08-17T07:44:16.243Z,52.71
2022-08-17T07:47:11.482Z,53.08
2022-08-17T07:49:40.803Z,52.31
2022-08-17T07:52:47.795Z,51.82
2022-08-17T07:55:01.225Z,50.94
2022-08-17T07:57:34.606Z,50.44
2022-08-17T08:00:12.792Z,50.21
2022-08-17T08:02:45.574Z,50.58
2022-08-17T08:05:49.508Z,48.66
2022-08-17T08:08:28.319Z,48.60
2022-08-17T08:11:00.215Z,47.10
2022-08-17T08:13:31.106Z,47.82
2022-08-17T08:16:15.308Z,47.33
2022-08-17T08:18:54.236Z,46.73
2022-08-17T08:21:46.500Z,46.26
2022-08-17T08:24:42.896Z,45.80
2022-08-17T08:27:33.093Z,42.70
2022-08-17T08:30:06.611Z,40.62
2022-08-17T08:32:57.679Z,40.28
2022-08-17T08:35:31.610Z,40.01
2022-08-17T08:38:23.871Z,38.99
2022-08-17T08:41:06.133Z,40.02
2022-08-17T08:43:53.199Z,38.20
2022-08-17T08:46:29.654Z,37.58
2022-08-17T08:49:19.592Z,38.82
2022-08-17T08:51:52.924Z,37.77
2022-08-17T08:54:42.852Z,37.95
2022-08-17T08:57:32.722Z,38.09
2022-08-17T09:00:34.861Z,38.83
2022-08-17T09:03:50.911Z,38.67
2022-08-17T09:06:49.020Z,38.38
2022-08-17T09:09:41.969Z,38.73
2022-08-17T09:12:13.936Z,38.78
2022-08-17T09:14:46.951Z,38.97
2022-08-17T09:17:18.379Z,37.97
2022-08-17T09:20:06.382Z,38.56
2022-08-17T09:22:37.891Z,38.13
2022-08-17T09:25:16.305Z,37.99
2022-08-17T09:27:50.771Z,37.76
2022-08-17T09:30:18.837Z,37.53
2022-08-17T09:32:50.143Z,37.08
2022-08-17T09:35:20.620Z,36.97
2022-08-17T09:38:00.456Z,36.45
2022-08-17T09:40:31.300Z,37.29
2022-08-17T09:43:04.512Z,36.10
2022-08-17T09:46:00.339Z,37.44
2022-08-17T09:48:39.506Z,35.59
2022-08-17T09:51:30.415Z,35.62
2022-08-17T09:54:09.692Z,34.53
2022-08-17T09:57:05.983Z,34.42
2022-08-17T09:59:55.735Z,34.00
2022-08-17T10:02:53.585Z,34.37
2022-08-17T10:05:40.834Z,33.18
2022-08-17T10:08:23.204Z,33.02
2022-08-17T10:11:06.274Z,33.69
2022-08-17T10:13:53.450Z,33.83
2022-08-17T10:16:42.448Z,33.67
2022-08-17T10:19:48.209Z,32.66
2022-08-17T10:22:51.168Z,32.58
2022-08-17T10:25:54.007Z,32.73
2022-08-17T10:28:28.902Z,31.42
2022-08-17T10:31:23.221Z,31.47
2022-08-17T10:34:05.719Z,32.04
2022-08-17T10:36:39.643Z,32.10
2022-08-17T10:39:12.734Z,31.29
2022-08-17T10:41:42.209Z,31.01
2022-08-17T10:44:36.935Z,30.36
2022-08-17T10:47:06.006Z,30.04
2022-08-17T10:49:34.240Z,29.09
2022-08-17T10:52:03.877Z,29.63
2022-08-17T10:54:35.510Z,29.67
2022-08-17T10:57:02.751Z,30.39
2022-08-17T10:59:56.275Z,29.15
2022-08-17T11:02:26.224Z,29.84
2022-08-17T11:05:28.758Z,28.20
2022-08-17T11:08:07.143Z,29.46
2022-08-17T11:11:06.843Z,29.00
2022-08-17T11:13:46.870Z,29.29
2022-08-17T11:16:49.324Z,27.54
2022-08-17T11:19:48.263Z,28.56
2022-08-17T11:22:34.245Z,27.74
2022-08-17T11:25:21.002Z,27.71
2022-08-17T11:27:53.978Z,28.38
2022-08-17T11:30:48.640Z,26.76
2022-08-17T11:33:41.679Z,25.65
2022-08-17T11:36:29.595Z,24.38
2022-08-17T11:39:05.625Z,26.28
2022-08-17T11:42:01.618Z,26.18
2022-08-17T11:44:50.615Z,28.22
2022-08-17T11:47:56.993Z,28.68
2022-08-17T11:51:02.044Z,28.21
2022-08-17T11:54:21.437Z,28.69
2022-08-17T11:56:51.498Z,27.23
2022-08-17T11:59:50.987Z,28.00
2022-08-17T12:02:32.584Z,26.43
2022-08-17T12:05:32.562Z,26.33
2022-08-17T12:08:07.963Z,27.39
2022-08-17T12:10:36.428Z,26.52
2022-08-17T12:13:07.386Z,25.93
2022-08-17T12:15:41.409Z,25.40
2022-08-17T12:18:09.131Z,26.36
2022-08-17T12:20:38.730Z,26.89
2022-08-17T12:23:28.870Z,25.74
2022-08-17T12:25:59.561Z,26.00
2022-08-17T12:28:30.538Z,24.85
2022-08-17T12:31:09.538Z,23.92
2022-08-17T12:33:37.007Z,24.66
2022-08-17T12:36:05.824Z,24.20
2022-08-17T12:38:35.135Z,25.22
2022-08-17T12:41:21.750Z,25.38
2022-08-17T12:44:24.218Z,26.16
2022-08-17T12:47:22.591Z,26.74
2022-08-17T12:49:53.957Z,26.38
2022-08-17T12:52:28.321Z,25.10
2022-08-17T12:55:02.984Z,24.51
2022-08-17T12:57:33.615Z,23.34
2022-08-17T13:00:01.960Z,24.12
2022-08-17T13:02:30.821Z,24.94
2022-08-17T13:04:59.149Z,24.68
2022-08-17T13:07:27.415Z,24.06
2022-08-17T13:09:54.337Z,23.28
2022-08-17T13:12:28.241Z,22.97
2022-08-17T13:14:57.534Z,23.48
2022-08-17T13:17:28.979Z,24.04
2022-08-17T13:19:55.816Z,23.05
2022-08-17T13:22:23.882Z,22.20
2022-08-17T13:24:58.561Z,22.65
2022-08-17T13:27:26.929Z,22.37
2022-08-17T13:29:57.347Z,22.79
2022-08-17T13:32:43.849Z,23.13
2022-08-17T13:35:39.604Z,23.46
2022-08-17T13:38:17.430Z,23.25
2022-08-17T13:40:46.350Z,22.83
2022-08-17T13:43:33.108Z,22.22
2022-08-17T13:46:07.750Z,22.18
2022-08-17T13:48:34.625Z,22.14
2022-08-17T13:51:10.402Z,22.25
2022-08-17T13:53:57.824Z,20.75
2022-08-17T13:56:33.548Z,21.09
2022-08-17T13:59:53.520Z,22.10
2022-08-17T14:02:21.139Z,22.03
2022-08-17T14:04:48.449Z,21.00
2022-08-17T14:07:27.535Z,20.73
2022-08-17T14:09:57.505Z,20.78
2022-08-17T14:12:26.529Z,20.74
2022-08-17T14:14:55.210Z,21.28
2022-08-17T14:17:23.110Z,21.24
2022-08-17T14:19:51.149Z,21.27
2022-08-17T14:22:38.266Z,20.48
2022-08-17T14:25:05.974Z,20.32
2022-08-17T14:27:52.351Z,20.67
2022-08-17T14:30:29.093Z,21.18
2022-08-17T14:32:58.231Z,20.97
2022-08-17T14:35:25.301Z,20.90
2022-08-17T14:37:52.572Z,20.88
2022-08-17T14:40:20.993Z,19.92
2022-08-17T14:42:48.284Z,20.21
2022-08-17T14:45:30.250Z,20.05
2022-08-17T14:48:00.321Z,20.20
2022-08-17T14:50:27.314Z,19.87
2022-08-17T14:52:58.071Z,19.93
2022-08-17T14:55:25.265Z,20.62
2022-08-17T14:57:52.465Z,19.52
2022-08-17T15:00:19.483Z,19.84
2022-08-17T15:02:54.049Z,20.00
2022-08-17T15:05:22.269Z,19.75
2022-08-17T15:07:49.325Z,20.41
2022-08-17T15:10:16.596Z,20.27
2022-08-17T15:12:43.932Z,20.12
2022-08-17T15:15:11.808Z,21.37
2022-08-17T15:17:44.718Z,19.50
2022-08-17T15:20:26.565Z,18.81
2022-08-17T15:22:57.563Z,18.78
2022-08-17T15:25:28.209Z,19.26
2022-08-17T15:27:56.075Z,19.24
2022-08-17T15:30:23.895Z,18.97
2022-08-17T15:32:54.957Z,19.39
2022-08-17T15:35:28.060Z,19.58
2022-08-17T15:37:56.196Z,19.98
2022-08-17T15:40:23.051Z,20.67
2022-08-17T15:42:51.271Z,20.40
2022-08-17T15:45:21.478Z,20.29
2022-08-17T15:47:48.320Z,20.69
2022-08-17T15:50:15.204Z,20.45
2022-08-17T15:52:45.202Z,20.55
2022-08-17T15:55:14.163Z,20.08
2022-08-17T15:57:41.177Z,19.97
2022-08-17T16:00:08.717Z,19.33
2022-08-17T16:03:46.148Z,18.01
2022-08-17T16:05:31.409Z,18.36
2022-08-17T16:07:59.906Z,17.81
2022-08-17T16:10:35.303Z,17.86
2022-08-17T16:13:03.704Z,18.16
2022-08-17T16:15:33.519Z,17.15
2022-08-17T16:18:00.431Z,16.63
2022-08-17T16:20:27.472Z,16.51
2022-08-17T16:22:54.998Z,16.40
2022-08-17T16:25:38.895Z,16.14
2022-08-17T16:28:18.099Z,16.50
2022-08-17T16:30:45.594Z,16.15
2022-08-17T16:33:12.906Z,16.90
2022-08-17T16:35:40.074Z,16.54
2022-08-17T16:38:07.246Z,17.16
2022-08-17T16:40:35.789Z,17.16
2022-08-17T16:43:03.747Z,17.84
2022-08-17T16:45:36.656Z,18.13
2022-08-17T16:48:04.073Z,18.62
2022-08-17T16:50:32.194Z,18.70
2022-08-17T16:53:18.082Z,19.24
2022-08-17T16:55:45.973Z,19.41
2022-08-17T16:58:13.233Z,20.05
2022-08-17T17:00:42.274Z,20.24
2022-08-17T17:03:19.982Z,21.05
2022-08-17T17:06:13.787Z,21.95
2022-08-17T17:08:46.780Z,22.10
2022-08-17T17:11:21.647Z,23.12
2022-08-17T17:13:58.004Z,23.49
2022-08-17T17:16:46.301Z,24.18
2022-08-17T17:19:27.702Z,24.81
2022-08-17T17:22:11.844Z,26.27
2022-08-17T17:24:57.513Z,27.58
2022-08-17T17:27:42.968Z,28.32
2022-08-17T17:30:13.778Z,29.18
2022-08-17T17:32:44.385Z,29.98
2022-08-17T17:35:16.505Z,30.94
2022-08-17T17:37:45.010Z,31.38
2022-08-17T17:40:23.207Z,31.52
2022-08-17T17:42:55.215Z,31.44
2022-08-17T17:45:37.847Z,32.05
2022-08-17T17:48:04.726Z,32.87
2022-08-17T17:50:43.309Z,32.69
2022-08-17T17:53:15.653Z,33.10
2022-08-17T17:56:01.009Z,33.74
2022-08-17T17:58:33.503Z,33.57
2022-08-17T18:01:20.566Z,33.81
2022-08-17T18:04:08.341Z,34.09
2022-08-17T18:07:11.169Z,34.64
2022-08-17T18:10:02.673Z,35.24
2022-08-17T18:12:49.795Z,35.56
2022-08-17T18:15:36.906Z,35.87
2022-08-17T18:18:38.448Z,36.05
2022-08-17T18:21:07.373Z,36.14
2022-08-17T18:23:34.225Z,36.51
2022-08-17T18:26:02.144Z,36.90
2022-08-17T18:28:41.221Z,37.38
2022-08-17T18:31:18.700Z,37.77
2022-08-17T18:33:47.454Z,38.24
2022-08-17T18:36:25.929Z,38.25
2022-08-17T18:39:08.761Z,38.45
2022-08-17T18:41:40.422Z,38.68
2022-08-17T18:44:19.505Z,38.74
2022-08-17T18:46:46.391Z,39.26
2022-08-17T18:49:39.367Z,39.63
2022-08-17T18:52:21.253Z,39.93
2022-08-17T18:55:14.413Z,40.21
2022-08-17T18:57:48.949Z,40.42
2022-08-17T19:00:35.663Z,40.62
2022-08-17T19:03:05.631Z,40.87
2022-08-17T19:05:41.409Z,41.16
2022-08-17T19:08:31.173Z,41.57
2022-08-17T19:11:30.351Z,41.91
2022-08-17T19:14:06.350Z,42.04
2022-08-17T19:16:52.058Z,42.19
2022-08-17T19:19:23.581Z,42.68
2022-08-17T19:21:53.481Z,42.91
2022-08-17T19:24:24.969Z,43.02
2022-08-17T19:27:06.855Z,42.97
2022-08-17T19:30:09.207Z,43.11
2022-08-17T19:32:37.536Z,43.18
2022-08-17T19:35:06.102Z,43.24
2022-08-17T19:37:39.349Z,43.33
2022-08-17T19:40:50.625Z,43.25
2022-08-17T19:43:33.770Z,43.53
2022-08-17T19:46:12.159Z,43.48
2022-08-17T19:49:05.311Z,43.27
2022-08-17T19:51:54.963Z,43.40
2022-08-17T19:54:56.733Z,43.51
2022-08-17T19:57:32.016Z,43.63
2022-08-17T20:00:02.341Z,43.45
2022-08-17T20:02:49.512Z,43.54
2022-08-17T20:05:20.021Z,43.92
2022-08-17T20:07:55.519Z,43.70
2022-08-17T20:10:55.215Z,43.73
2022-08-17T20:13:33.302Z,44.00
2022-08-17T20:16:01.059Z,44.40
2022-08-17T20:18:32.151Z,44.42
2022-08-17T20:21:10.834Z,44.52
2022-08-17T20:23:57.018Z,44.40
2022-08-17T20:26:27.513Z,44.33
2022-08-17T20:29:37.736Z,44.58
2022-08-17T20:32:14.777Z,44.71
2022-08-17T20:34:45.173Z,44.76
2022-08-17T20:37:29.844Z,44.59
2022-08-17T20:40:16.872Z,44.30
2022-08-17T20:42:43.770Z,44.27
2022-08-17T20:45:42.936Z,44.34
2022-08-17T20:48:36.196Z,44.49
2022-08-17T20:51:18.262Z,44.49
2022-08-17T20:54:08.493Z,44.89
2022-08-17T20:56:48.828Z,44.79
2022-08-17T20:59:41.993Z,45.09
2022-08-17T21:02:19.341Z,45.16
2022-08-17T21:05:00.332Z,45.52
2022-08-17T21:07:48.442Z,45.78
2022-08-17T21:10:34.224Z,45.91
2022-08-17T21:13:33.538Z,46.02
2022-08-17T21:16:10.262Z,46.15
2022-08-17T21:18:46.721Z,46.43
2022-08-17T21:21:36.031Z,46.49
2022-08-17T21:24:23.041Z,46.90
2022-08-17T21:27:06.556Z,47.18
2022-08-17T21:29:33.900Z,46.95
2022-08-17T21:32:25.331Z,47.12
2022-08-17T21:35:30.040Z,47.01
2022-08-17T21:38:02.439Z,47.06
2022-08-17T21:40:31.144Z,47.59
2022-08-17T21:43:01.078Z,47.36
2022-08-17T21:45:29.751Z,47.39
2022-08-17T21:48:14.970Z,47.32
2022-08-17T21:50:44.432Z,47.30
2022-08-17T21:53:22.445Z,47.22
2022-08-17T21:55:50.436Z,47.21
2022-08-17T21:58:29.180Z,47.31
2022-08-17T22:01:14.762Z,47.20
2022-08-17T22:03:41.981Z,47.16
2022-08-17T22:06:18.827Z,47.35
2022-08-17T22:08:57.551Z,47.67
2022-08-17T22:11:24.479Z,48.20
2022-08-17T22:13:51.645Z,48.15
2022-08-17T22:16:28.840Z,48.33
2022-08-17T22:18:58.208Z,48.47
2022-08-17T22:21:25.533Z,48.03
2022-08-17T22:24:05.721Z,47.94
2022-08-17T22:26:51.314Z,47.95
2022-08-17T22:29:37.468Z,48.53
2022-08-17T22:32:04.394Z,48.43
2022-08-17T22:34:31.282Z,48.41
2022-08-17T22:37:16.546Z,48.82
2022-08-17T22:39:43.456Z,49.13
2022-08-17T22:42:14.770Z,49.69
2022-08-17T22:44:49.385Z,49.68
2022-08-17T22:47:27.034Z,49.45
2022-08-17T22:49:58.962Z,49.90
2022-08-17T22:52:32.396Z,50.19
2022-08-17T22:55:23.713Z,50.38
2022-08-17T22:58:10.017Z,50.46
2022-08-17T23:00:39.115Z,50.63
2022-08-17T23:03:18.051Z,50.74
2022-08-17T23:05:47.577Z,51.19
2022-08-17T23:08:15.545Z,51.36
2022-08-17T23:10:42.795Z,51.47
2022-08-17T23:13:11.971Z,51.48
2022-08-17T23:15:41.961Z,51.62
2022-08-17T23:18:08.725Z,52.16
2022-08-17T23:20:36.643Z,52.41
2022-08-17T23:23:07.091Z,52.47
2022-08-17T23:25:34.717Z,52.11
2022-08-17T23:28:02.764Z,52.18
2022-08-17T23:30:30.775Z,52.48
2022-08-17T23:33:04.245Z,52.40
2022-08-17T23:35:38.853Z,52.55
2022-08-17T23:38:08.852Z,52.86
2022-08-17T23:40:35.709Z,52.88
2022-08-17T23:43:06.048Z,52.75
2022-08-17T23:45:54.148Z,53.18
2022-08-17T23:48:27.812Z,53.32
2022-08-17T23:51:04.224Z,53.26
2022-08-17T23:53:34.198Z,53.31
2022-08-17T23:56:03.777Z,53.79
2022-08-17T23:58:38.587Z,53.54
